sensor_id;sensor_type;location;lat;lon;timestamp;P1;durP1;ratioP1;P2;durP2;ratioP2
20890;SDS011;10605;52.968;8.844;2023-07-29T00:01:21;31.48;;;19.25;;
20890;SDS011;10605;52.968;8.844;2023-07-29T00:03:49;29.10;;;20.23;;
20890;SDS011;10605;52.968;8.844;2023-07-29T00:06:14;32.63;;;20.20;;
20890;SDS011;10605;52.968;8.844;2023-07-29T00:08:43;29.42;;;18.98;;
20890;SDS011;10605;52.968;8.844;2023-07-29T00:11:21;23.35;;;17.77;;
20890;SDS011;10605;52.968;8.844;2023-07-29T00:14:06;23.60;;;17.05;;
20890;SDS011;10605;52.968;8.844;2023-07-29T00:16:34;24.30;;;16.80;;
20890;SDS011;10605;52.968;8.844;2023-07-29T00:22:06;24.70;;;17.98;;
20890;SDS011;10605;52.968;8.844;2023-07-29T00:24:39;24.85;;;17.52;;
20890;SDS011;10605;52.968;8.844;2023-07-29T00:27:05;25.40;;;18.60;;
20890;SDS011;10605;52.968;8.844;2023-07-29T00:29:35;24.02;;;18.90;;
20890;SDS011;10605;52.968;8.844;2023-07-29T00:32:26;28.15;;;18.65;;
20890;SDS011;10605;52.968;8.844;2023-07-29T00:35:12;27.80;;;18.88;;
20890;SDS011;10605;52.968;8.844;2023-07-29T00:37:42;26.48;;;17.35;;
20890;SDS011;10605;52.968;8.844;2023-07-29T00:40:19;22.67;;;16.33;;
20890;SDS011;10605;52.968;8.844;2023-07-29T00:42:46;20.15;;;14.73;;
20890;SDS011;10605;52.968;8.844;2023-07-29T00:45:18;19.17;;;14.25;;
20890;SDS011;10605;52.968;8.844;2023-07-29T00:47:48;15.32;;;13.65;;
20890;SDS011;10605;52.968;8.844;2023-07-29T00:50:16;18.50;;;14.18;;
20890;SDS011;10605;52.968;8.844;2023-07-29T00:52:42;16.55;;;14.10;;
20890;SDS011;10605;52.968;8.844;2023-07-29T00:55:10;19.48;;;14.77;;
20890;SDS011;10605;52.968;8.844;2023-07-29T00:57:36;28.02;;;17.50;;
20890;SDS011;10605;52.968;8.844;2023-07-29T01:00:05;31.77;;;19.40;;
20890;SDS011;10605;52.968;8.844;2023-07-29T01:02:31;41.90;;;21.60;;
20890;SDS011;10605;52.968;8.844;2023-07-29T01:05:04;39.65;;;20.73;;
20890;SDS011;10605;52.968;8.844;2023-07-29T01:13:25;40.17;;;24.13;;
20890;SDS011;10605;52.968;8.844;2023-07-29T01:15:58;46.28;;;24.60;;
20890;SDS011;10605;52.968;8.844;2023-07-29T01:18:45;55.60;;;28.02;;
20890;SDS011;10605;52.968;8.844;2023-07-29T01:21:13;56.47;;;29.45;;
20890;SDS011;10605;52.968;8.844;2023-07-29T01:23:40;57.05;;;30.38;;
20890;SDS011;10605;52.968;8.844;2023-07-29T01:26:11;59.13;;;29.63;;
20890;SDS011;10605;52.968;8.844;2023-07-29T01:28:59;60.58;;;29.85;;
20890;SDS011;10605;52.968;8.844;2023-07-29T01:31:38;59.72;;;30.25;;
20890;SDS011;10605;52.968;8.844;2023-07-29T01:36:54;65.18;;;31.30;;
20890;SDS011;10605;52.968;8.844;2023-07-29T01:39:31;56.47;;;30.63;;
20890;SDS011;10605;52.968;8.844;2023-07-29T01:42:05;48.72;;;28.02;;
20890;SDS011;10605;52.968;8.844;2023-07-29T01:44:31;53.80;;;28.15;;
20890;SDS011;10605;52.968;8.844;2023-07-29T01:49:55;55.53;;;27.45;;
20890;SDS011;10605;52.968;8.844;2023-07-29T01:52:20;50.90;;;27.92;;
20890;SDS011;10605;52.968;8.844;2023-07-29T01:55:04;46.22;;;27.08;;
20890;SDS011;10605;52.968;8.844;2023-07-29T01:57:32;59.20;;;30.30;;
20890;SDS011;10605;52.968;8.844;2023-07-29T01:59:58;56.72;;;30.80;;
20890;SDS011;10605;52.968;8.844;2023-07-29T02:02:26;68.45;;;32.25;;
20890;SDS011;10605;52.968;8.844;2023-07-29T02:05:00;64.07;;;32.45;;
20890;SDS011;10605;52.968;8.844;2023-07-29T02:07:26;64.43;;;32.47;;
20890;SDS011;10605;52.968;8.844;2023-07-29T02:09:57;65.70;;;32.90;;
20890;SDS011;10605;52.968;8.844;2023-07-29T02:12:25;66.90;;;33.25;;
20890;SDS011;10605;52.968;8.844;2023-07-29T02:14:54;71.22;;;33.70;;
20890;SDS011;10605;52.968;8.844;2023-07-29T02:17:19;61.50;;;31.95;;
20890;SDS011;10605;52.968;8.844;2023-07-29T02:19:48;63.67;;;31.38;;
20890;SDS011;10605;52.968;8.844;2023-07-29T02:22:14;65.10;;;30.35;;
20890;SDS011;10605;52.968;8.844;2023-07-29T02:24:41;57.25;;;30.40;;
20890;SDS011;10605;52.968;8.844;2023-07-29T02:27:09;60.38;;;31.38;;
20890;SDS011;10605;52.968;8.844;2023-07-29T02:29:40;60.00;;;31.60;;
20890;SDS011;10605;52.968;8.844;2023-07-29T02:32:13;57.65;;;29.92;;
20890;SDS011;10605;52.968;8.844;2023-07-29T02:34:44;56.58;;;30.25;;
20890;SDS011;10605;52.968;8.844;2023-07-29T02:37:25;60.42;;;28.20;;
20890;SDS011;10605;52.968;8.844;2023-07-29T02:39:53;55.47;;;28.83;;
20890;SDS011;10605;52.968;8.844;2023-07-29T02:42:21;61.05;;;28.77;;
20890;SDS011;10605;52.968;8.844;2023-07-29T02:44:55;60.85;;;31.77;;
20890;SDS011;10605;52.968;8.844;2023-07-29T02:47:23;57.22;;;30.48;;
20890;SDS011;10605;52.968;8.844;2023-07-29T02:49:55;65.65;;;30.33;;
20890;SDS011;10605;52.968;8.844;2023-07-29T02:52:28;62.20;;;30.60;;
20890;SDS011;10605;52.968;8.844;2023-07-29T02:54:59;57.45;;;29.70;;
20890;SDS011;10605;52.968;8.844;2023-07-29T02:57:25;55.60;;;30.17;;
20890;SDS011;10605;52.968;8.844;2023-07-29T02:59:53;60.95;;;31.05;;
20890;SDS011;10605;52.968;8.844;2023-07-29T03:02:26;67.22;;;31.73;;
20890;SDS011;10605;52.968;8.844;2023-07-29T03:05:09;62.33;;;30.45;;
20890;SDS011;10605;52.968;8.844;2023-07-29T03:07:37;54.45;;;30.08;;
20890;SDS011;10605;52.968;8.844;2023-07-29T03:10:12;57.10;;;28.35;;
20890;SDS011;10605;52.968;8.844;2023-07-29T03:12:41;54.08;;;28.73;;
20890;SDS011;10605;52.968;8.844;2023-07-29T03:15:09;60.22;;;29.02;;
20890;SDS011;10605;52.968;8.844;2023-07-29T03:17:45;61.55;;;29.45;;
20890;SDS011;10605;52.968;8.844;2023-07-29T03:20:20;55.97;;;28.30;;
20890;SDS011;10605;52.968;8.844;2023-07-29T03:22:48;51.92;;;26.83;;
20890;SDS011;10605;52.968;8.844;2023-07-29T03:25:16;50.63;;;27.58;;
20890;SDS011;10605;52.968;8.844;2023-07-29T03:27:41;54.53;;;27.52;;
20890;SDS011;10605;52.968;8.844;2023-07-29T03:30:14;54.85;;;28.98;;
20890;SDS011;10605;52.968;8.844;2023-07-29T03:32:43;51.38;;;27.60;;
20890;SDS011;10605;52.968;8.844;2023-07-29T03:35:12;58.63;;;27.58;;
20890;SDS011;10605;52.968;8.844;2023-07-29T03:37:37;48.20;;;26.15;;
20890;SDS011;10605;52.968;8.844;2023-07-29T03:40:03;46.92;;;25.83;;
20890;SDS011;10605;52.968;8.844;2023-07-29T03:42:32;53.75;;;27.38;;
20890;SDS011;10605;52.968;8.844;2023-07-29T03:44:58;49.83;;;27.58;;
20890;SDS011;10605;52.968;8.844;2023-07-29T03:47:26;50.08;;;26.95;;
20890;SDS011;10605;52.968;8.844;2023-07-29T03:50:10;50.08;;;27.42;;
20890;SDS011;10605;52.968;8.844;2023-07-29T03:52:43;54.05;;;26.48;;
20890;SDS011;10605;52.968;8.844;2023-07-29T03:55:17;51.95;;;26.77;;
20890;SDS011;10605;52.968;8.844;2023-07-29T03:57:48;47.67;;;24.95;;
20890;SDS011;10605;52.968;8.844;2023-07-29T04:00:18;47.13;;;25.20;;
20890;SDS011;10605;52.968;8.844;2023-07-29T04:02:51;37.63;;;23.10;;
20890;SDS011;10605;52.968;8.844;2023-07-29T04:05:22;38.47;;;22.50;;
20890;SDS011;10605;52.968;8.844;2023-07-29T04:07:50;36.55;;;21.70;;
20890;SDS011;10605;52.968;8.844;2023-07-29T04:10:21;37.70;;;22.70;;
20890;SDS011;10605;52.968;8.844;2023-07-29T04:12:55;36.60;;;22.48;;
20890;SDS011;10605;52.968;8.844;2023-07-29T04:15:23;31.10;;;20.83;;
20890;SDS011;10605;52.968;8.844;2023-07-29T04:17:51;31.35;;;20.85;;
20890;SDS011;10605;52.968;8.844;2023-07-29T04:20:22;27.70;;;18.65;;
20890;SDS011;10605;52.968;8.844;2023-07-29T04:22:57;28.92;;;18.70;;
20890;SDS011;10605;52.968;8.844;2023-07-29T04:25:30;27.75;;;18.15;;
20890;SDS011;10605;52.968;8.844;2023-07-29T04:28:01;26.50;;;17.63;;
20890;SDS011;10605;52.968;8.844;2023-07-29T04:30:34;27.63;;;18.75;;
20890;SDS011;10605;52.968;8.844;2023-07-29T04:33:00;23.75;;;17.42;;
20890;SDS011;10605;52.968;8.844;2023-07-29T04:35:26;23.55;;;17.55;;
20890;SDS011;10605;52.968;8.844;2023-07-29T04:38:07;23.98;;;17.83;;
20890;SDS011;10605;52.968;8.844;2023-07-29T04:40:37;21.60;;;15.70;;
20890;SDS011;10605;52.968;8.844;2023-07-29T04:43:03;19.52;;;16.10;;
20890;SDS011;10605;52.968;8.844;2023-07-29T04:45:31;19.48;;;15.80;;
20890;SDS011;10605;52.968;8.844;2023-07-29T04:48:02;17.73;;;15.48;;
20890;SDS011;10605;52.968;8.844;2023-07-29T04:50:27;19.92;;;14.65;;
20890;SDS011;10605;52.968;8.844;2023-07-29T04:52:56;17.02;;;14.75;;
20890;SDS011;10605;52.968;8.844;2023-07-29T04:55:21;20.27;;;14.65;;
20890;SDS011;10605;52.968;8.844;2023-07-29T04:57:49;16.40;;;13.25;;
20890;SDS011;10605;52.968;8.844;2023-07-29T05:00:15;19.23;;;13.15;;
20890;SDS011;10605;52.968;8.844;2023-07-29T05:02:45;14.55;;;12.70;;
20890;SDS011;10605;52.968;8.844;2023-07-29T05:05:11;18.35;;;12.45;;
20890;SDS011;10605;52.968;8.844;2023-07-29T05:07:37;14.85;;;13.30;;
20890;SDS011;10605;52.968;8.844;2023-07-29T05:10:12;14.65;;;13.23;;
20890;SDS011;10605;52.968;8.844;2023-07-29T05:12:40;15.20;;;13.30;;
20890;SDS011;10605;52.968;8.844;2023-07-29T05:15:06;20.02;;;12.50;;
20890;SDS011;10605;52.968;8.844;2023-07-29T05:17:37;14.90;;;11.77;;
20890;SDS011;10605;52.968;8.844;2023-07-29T05:20:06;15.80;;;11.45;;
20890;SDS011;10605;52.968;8.844;2023-07-29T05:22:32;12.48;;;11.27;;
20890;SDS011;10605;52.968;8.844;2023-07-29T05:25:05;16.25;;;11.60;;
20890;SDS011;10605;52.968;8.844;2023-07-29T05:27:32;12.43;;;10.40;;
20890;SDS011;10605;52.968;8.844;2023-07-29T05:29:59;11.32;;;10.32;;
20890;SDS011;10605;52.968;8.844;2023-07-29T05:32:27;13.18;;;10.35;;
20890;SDS011;10605;52.968;8.844;2023-07-29T05:34:55;15.98;;;9.75;;
20890;SDS011;10605;52.968;8.844;2023-07-29T05:37:42;11.32;;;10.32;;
20890;SDS011;10605;52.968;8.844;2023-07-29T05:40:13;11.52;;;10.40;;
20890;SDS011;10605;52.968;8.844;2023-07-29T05:42:44;11.18;;;10.18;;
20890;SDS011;10605;52.968;8.844;2023-07-29T05:45:10;15.68;;;10.57;;
20890;SDS011;10605;52.968;8.844;2023-07-29T05:47:38;11.60;;;10.60;;
20890;SDS011;10605;52.968;8.844;2023-07-29T05:50:04;11.80;;;10.45;;
20890;SDS011;10605;52.968;8.844;2023-07-29T05:52:39;13.05;;;10.27;;
20890;SDS011;10605;52.968;8.844;2023-07-29T05:55:10;11.77;;;10.93;;
20890;SDS011;10605;52.968;8.844;2023-07-29T05:57:36;10.95;;;9.77;;
20890;SDS011;10605;52.968;8.844;2023-07-29T06:00:01;11.90;;;10.43;;
20890;SDS011;10605;52.968;8.844;2023-07-29T06:02:30;12.52;;;11.32;;
20890;SDS011;10605;52.968;8.844;2023-07-29T06:04:55;14.10;;;12.63;;
20890;SDS011;10605;52.968;8.844;2023-07-29T06:07:23;14.65;;;12.45;;
20890;SDS011;10605;52.968;8.844;2023-07-29T06:12:44;13.90;;;12.43;;
20890;SDS011;10605;52.968;8.844;2023-07-29T06:15:14;14.50;;;12.82;;
20890;SDS011;10605;52.968;8.844;2023-07-29T06:17:44;14.77;;;13.27;;
20890;SDS011;10605;52.968;8.844;2023-07-29T06:20:10;12.65;;;11.65;;
20890;SDS011;10605;52.968;8.844;2023-07-29T06:22:36;14.80;;;12.25;;
20890;SDS011;10605;52.968;8.844;2023-07-29T06:25:04;12.80;;;11.45;;
20890;SDS011;10605;52.968;8.844;2023-07-29T06:27:30;13.43;;;12.05;;
20890;SDS011;10605;52.968;8.844;2023-07-29T06:29:55;12.23;;;11.35;;
20890;SDS011;10605;52.968;8.844;2023-07-29T06:32:24;13.07;;;12.07;;
20890;SDS011;10605;52.968;8.844;2023-07-29T06:34:51;12.30;;;11.18;;
20890;SDS011;10605;52.968;8.844;2023-07-29T06:37:20;13.98;;;12.68;;
20890;SDS011;10605;52.968;8.844;2023-07-29T06:39:45;13.93;;;12.60;;
20890;SDS011;10605;52.968;8.844;2023-07-29T06:42:18;13.05;;;11.65;;
20890;SDS011;10605;52.968;8.844;2023-07-29T06:44:51;13.63;;;12.32;;
20890;SDS011;10605;52.968;8.844;2023-07-29T06:47:18;12.63;;;11.65;;
20890;SDS011;10605;52.968;8.844;2023-07-29T06:49:46;14.13;;;12.13;;
20890;SDS011;10605;52.968;8.844;2023-07-29T06:52:19;15.10;;;11.38;;
20890;SDS011;10605;52.968;8.844;2023-07-29T06:54:45;12.77;;;11.43;;
20890;SDS011;10605;52.968;8.844;2023-07-29T06:57:13;12.80;;;11.65;;
20890;SDS011;10605;52.968;8.844;2023-07-29T06:59:43;12.10;;;11.10;;
20890;SDS011;10605;52.968;8.844;2023-07-29T07:02:09;13.00;;;11.80;;
20890;SDS011;10605;52.968;8.844;2023-07-29T07:04:42;13.07;;;11.38;;
20890;SDS011;10605;52.968;8.844;2023-07-29T07:07:10;11.85;;;10.90;;
20890;SDS011;10605;52.968;8.844;2023-07-29T07:09:38;12.02;;;10.85;;
20890;SDS011;10605;52.968;8.844;2023-07-29T07:12:12;10.93;;;10.07;;
20890;SDS011;10605;52.968;8.844;2023-07-29T07:17:27;10.00;;;9.20;;
20890;SDS011;10605;52.968;8.844;2023-07-29T07:19:59;9.95;;;9.07;;
20890;SDS011;10605;52.968;8.844;2023-07-29T07:22:25;8.90;;;8.30;;
20890;SDS011;10605;52.968;8.844;2023-07-29T07:24:57;9.98;;;9.27;;
20890;SDS011;10605;52.968;8.844;2023-07-29T07:27:25;10.02;;;8.98;;
20890;SDS011;10605;52.968;8.844;2023-07-29T07:29:53;11.73;;;8.88;;
20890;SDS011;10605;52.968;8.844;2023-07-29T07:32:19;9.25;;;8.57;;
20890;SDS011;10605;52.968;8.844;2023-07-29T07:34:44;8.02;;;7.50;;
20890;SDS011;10605;52.968;8.844;2023-07-29T07:37:18;12.63;;;8.45;;
20890;SDS011;10605;52.968;8.844;2023-07-29T07:39:46;8.43;;;7.90;;
20890;SDS011;10605;52.968;8.844;2023-07-29T07:42:12;8.32;;;7.63;;
20890;SDS011;10605;52.968;8.844;2023-07-29T07:44:37;8.27;;;7.65;;
20890;SDS011;10605;52.968;8.844;2023-07-29T07:47:03;9.02;;;8.43;;
20890;SDS011;10605;52.968;8.844;2023-07-29T07:49:29;9.18;;;8.52;;
20890;SDS011;10605;52.968;8.844;2023-07-29T07:51:54;9.43;;;8.52;;
20890;SDS011;10605;52.968;8.844;2023-07-29T07:54:23;9.73;;;8.93;;
20890;SDS011;10605;52.968;8.844;2023-07-29T07:57:06;8.82;;;8.13;;
20890;SDS011;10605;52.968;8.844;2023-07-29T07:59:31;9.23;;;8.52;;
20890;SDS011;10605;52.968;8.844;2023-07-29T08:02:03;9.40;;;8.60;;
20890;SDS011;10605;52.968;8.844;2023-07-29T08:04:40;10.20;;;7.88;;
20890;SDS011;10605;52.968;8.844;2023-07-29T08:07:10;8.50;;;7.80;;
20890;SDS011;10605;52.968;8.844;2023-07-29T08:09:43;9.02;;;8.15;;
20890;SDS011;10605;52.968;8.844;2023-07-29T08:12:12;9.00;;;6.93;;
20890;SDS011;10605;52.968;8.844;2023-07-29T08:14:40;7.15;;;6.60;;
20890;SDS011;10605;52.968;8.844;2023-07-29T08:17:13;7.57;;;6.32;;
20890;SDS011;10605;52.968;8.844;2023-07-29T08:19:41;6.78;;;5.68;;
20890;SDS011;10605;52.968;8.844;2023-07-29T08:22:07;5.63;;;5.22;;
20890;SDS011;10605;52.968;8.844;2023-07-29T08:24:36;5.65;;;5.13;;
20890;SDS011;10605;52.968;8.844;2023-07-29T08:27:01;5.70;;;5.18;;
20890;SDS011;10605;52.968;8.844;2023-07-29T08:29:27;4.60;;;4.38;;
20890;SDS011;10605;52.968;8.844;2023-07-29T08:31:52;4.78;;;4.38;;
20890;SDS011;10605;52.968;8.844;2023-07-29T08:34:20;4.85;;;3.92;;
20890;SDS011;10605;52.968;8.844;2023-07-29T08:36:46;4.78;;;4.38;;
20890;SDS011;10605;52.968;8.844;2023-07-29T08:39:16;4.30;;;3.92;;
20890;SDS011;10605;52.968;8.844;2023-07-29T08:44:24;3.97;;;3.75;;
20890;SDS011;10605;52.968;8.844;2023-07-29T08:46:51;4.25;;;3.90;;
20890;SDS011;10605;52.968;8.844;2023-07-29T08:49:24;5.40;;;4.03;;
20890;SDS011;10605;52.968;8.844;2023-07-29T08:52:01;4.65;;;4.20;;
20890;SDS011;10605;52.968;8.844;2023-07-29T08:54:29;8.32;;;4.80;;
20890;SDS011;10605;52.968;8.844;2023-07-29T08:56:57;6.38;;;4.63;;
20890;SDS011;10605;52.968;8.844;2023-07-29T08:59:25;5.57;;;4.38;;
20890;SDS011;10605;52.968;8.844;2023-07-29T09:01:51;5.53;;;4.22;;
20890;SDS011;10605;52.968;8.844;2023-07-29T09:04:20;6.90;;;4.57;;
20890;SDS011;10605;52.968;8.844;2023-07-29T09:06:47;3.80;;;3.50;;
20890;SDS011;10605;52.968;8.844;2023-07-29T09:09:16;7.22;;;3.67;;
20890;SDS011;10605;52.968;8.844;2023-07-29T09:11:42;5.05;;;4.20;;
20890;SDS011;10605;52.968;8.844;2023-07-29T09:14:09;4.80;;;4.50;;
20890;SDS011;10605;52.968;8.844;2023-07-29T09:16:35;4.78;;;3.90;;
20890;SDS011;10605;52.968;8.844;2023-07-29T09:19:01;3.58;;;3.33;;
20890;SDS011;10605;52.968;8.844;2023-07-29T09:21:31;6.32;;;3.78;;
20890;SDS011;10605;52.968;8.844;2023-07-29T09:23:57;4.97;;;4.03;;
20890;SDS011;10605;52.968;8.844;2023-07-29T09:26:29;4.25;;;3.83;;
20890;SDS011;10605;52.968;8.844;2023-07-29T09:28:56;3.90;;;3.53;;
20890;SDS011;10605;52.968;8.844;2023-07-29T09:31:24;8.40;;;4.47;;
20890;SDS011;10605;52.968;8.844;2023-07-29T09:34:03;3.78;;;3.47;;
20890;SDS011;10605;52.968;8.844;2023-07-29T09:36:32;4.72;;;4.32;;
20890;SDS011;10605;52.968;8.844;2023-07-29T09:38:58;5.03;;;4.72;;
20890;SDS011;10605;52.968;8.844;2023-07-29T09:41:28;7.97;;;4.40;;
20890;SDS011;10605;52.968;8.844;2023-07-29T09:43:59;4.43;;;4.03;;
20890;SDS011;10605;52.968;8.844;2023-07-29T09:46:36;4.85;;;3.38;;
20890;SDS011;10605;52.968;8.844;2023-07-29T09:49:06;3.92;;;3.35;;
20890;SDS011;10605;52.968;8.844;2023-07-29T09:51:39;3.15;;;2.95;;
20890;SDS011;10605;52.968;8.844;2023-07-29T09:54:05;5.13;;;2.80;;
20890;SDS011;10605;52.968;8.844;2023-07-29T09:56:31;2.75;;;2.65;;
20890;SDS011;10605;52.968;8.844;2023-07-29T09:58:57;2.90;;;2.70;;
20890;SDS011;10605;52.968;8.844;2023-07-29T10:01:23;5.03;;;2.90;;
20890;SDS011;10605;52.968;8.844;2023-07-29T10:03:49;5.78;;;2.63;;
20890;SDS011;10605;52.968;8.844;2023-07-29T10:06:15;6.57;;;2.67;;
20890;SDS011;10605;52.968;8.844;2023-07-29T10:08:43;3.13;;;2.28;;
20890;SDS011;10605;52.968;8.844;2023-07-29T10:11:09;2.92;;;2.20;;
20890;SDS011;10605;52.968;8.844;2023-07-29T10:13:36;3.38;;;1.90;;
20890;SDS011;10605;52.968;8.844;2023-07-29T10:16:03;1.95;;;1.58;;
20890;SDS011;10605;52.968;8.844;2023-07-29T10:18:30;2.45;;;1.60;;
20890;SDS011;10605;52.968;8.844;2023-07-29T10:20:57;1.65;;;1.55;;
20890;SDS011;10605;52.968;8.844;2023-07-29T10:23:24;1.95;;;1.40;;
20890;SDS011;10605;52.968;8.844;2023-07-29T10:25:54;2.25;;;1.60;;
20890;SDS011;10605;52.968;8.844;2023-07-29T10:28:31;1.27;;;1.20;;
20890;SDS011;10605;52.968;8.844;2023-07-29T10:30:57;2.88;;;1.35;;
20890;SDS011;10605;52.968;8.844;2023-07-29T10:33:24;1.70;;;1.60;;
20890;SDS011;10605;52.968;8.844;2023-07-29T10:35:50;2.58;;;1.23;;
20890;SDS011;10605;52.968;8.844;2023-07-29T10:38:17;1.65;;;1.27;;
20890;SDS011;10605;52.968;8.844;2023-07-29T10:40:47;1.35;;;1.25;;
20890;SDS011;10605;52.968;8.844;2023-07-29T10:43:31;1.33;;;1.23;;
20890;SDS011;10605;52.968;8.844;2023-07-29T10:46:14;1.50;;;1.40;;
20890;SDS011;10605;52.968;8.844;2023-07-29T10:48:53;3.25;;;1.48;;
20890;SDS011;10605;52.968;8.844;2023-07-29T10:51:36;3.45;;;1.15;;
20890;SDS011;10605;52.968;8.844;2023-07-29T10:54:08;1.83;;;1.73;;
20890;SDS011;10605;52.968;8.844;2023-07-29T10:56:43;2.25;;;1.40;;
20890;SDS011;10605;52.968;8.844;2023-07-29T11:01:42;1.30;;;1.20;;
20890;SDS011;10605;52.968;8.844;2023-07-29T11:12:40;1.02;;;1.02;;
20890;SDS011;10605;52.968;8.844;2023-07-29T11:17:39;0.80;;;0.80;;
20890;SDS011;10605;52.968;8.844;2023-07-29T11:20:05;1.05;;;0.95;;
20890;SDS011;10605;52.968;8.844;2023-07-29T11:22:34;3.00;;;0.80;;
20890;SDS011;10605;52.968;8.844;2023-07-29T11:25:01;1.15;;;1.02;;
20890;SDS011;10605;52.968;8.844;2023-07-29T11:27:27;1.17;;;0.98;;
20890;SDS011;10605;52.968;8.844;2023-07-29T11:29:56;2.83;;;0.85;;
20890;SDS011;10605;52.968;8.844;2023-07-29T11:32:27;1.45;;;0.95;;
20890;SDS011;10605;52.968;8.844;2023-07-29T11:34:53;1.30;;;1.10;;
20890;SDS011;10605;52.968;8.844;2023-07-29T11:37:18;0.80;;;0.80;;
20890;SDS011;10605;52.968;8.844;2023-07-29T11:39:46;1.20;;;1.20;;
20890;SDS011;10605;52.968;8.844;2023-07-29T11:42:12;0.93;;;0.90;;
20890;SDS011;10605;52.968;8.844;2023-07-29T11:44:38;2.60;;;1.10;;
20890;SDS011;10605;52.968;8.844;2023-07-29T11:47:10;0.90;;;0.90;;
20890;SDS011;10605;52.968;8.844;2023-07-29T11:49:40;3.70;;;1.00;;
20890;SDS011;10605;52.968;8.844;2023-07-29T11:52:06;0.93;;;0.88;;
20890;SDS011;10605;52.968;8.844;2023-07-29T11:54:34;1.83;;;1.15;;
20890;SDS011;10605;52.968;8.844;2023-07-29T11:57:02;0.80;;;0.70;;
20890;SDS011;10605;52.968;8.844;2023-07-29T11:59:31;1.10;;;1.00;;
20890;SDS011;10605;52.968;8.844;2023-07-29T12:01:58;1.67;;;1.20;;
20890;SDS011;10605;52.968;8.844;2023-07-29T12:04:25;1.92;;;1.17;;
20890;SDS011;10605;52.968;8.844;2023-07-29T12:06:51;1.75;;;1.00;;
20890;SDS011;10605;52.968;8.844;2023-07-29T12:09:17;2.25;;;0.90;;
20890;SDS011;10605;52.968;8.844;2023-07-29T12:11:44;1.60;;;1.00;;
20890;SDS011;10605;52.968;8.844;2023-07-29T12:14:09;3.58;;;0.95;;
20890;SDS011;10605;52.968;8.844;2023-07-29T12:16:42;3.20;;;1.10;;
20890;SDS011;10605;52.968;8.844;2023-07-29T12:19:08;0.70;;;0.70;;
20890;SDS011;10605;52.968;8.844;2023-07-29T12:21:36;2.55;;;0.90;;
20890;SDS011;10605;52.968;8.844;2023-07-29T12:24:02;0.85;;;0.70;;
20890;SDS011;10605;52.968;8.844;2023-07-29T12:26:29;0.80;;;0.65;;
20890;SDS011;10605;52.968;8.844;2023-07-29T12:28:55;2.65;;;0.77;;
20890;SDS011;10605;52.968;8.844;2023-07-29T12:31:21;2.80;;;0.90;;
20890;SDS011;10605;52.968;8.844;2023-07-29T12:33:55;1.60;;;1.00;;
20890;SDS011;10605;52.968;8.844;2023-07-29T12:36:22;1.95;;;0.60;;
20890;SDS011;10605;52.968;8.844;2023-07-29T12:38:52;1.75;;;1.23;;
20890;SDS011;10605;52.968;8.844;2023-07-29T12:41:17;0.80;;;0.80;;
20890;SDS011;10605;52.968;8.844;2023-07-29T12:43:43;3.13;;;0.80;;
20890;SDS011;10605;52.968;8.844;2023-07-29T12:46:10;1.08;;;0.73;;
20890;SDS011;10605;52.968;8.844;2023-07-29T12:48:35;1.88;;;0.93;;
20890;SDS011;10605;52.968;8.844;2023-07-29T12:51:01;2.95;;;0.75;;
20890;SDS011;10605;52.968;8.844;2023-07-29T12:53:27;1.48;;;0.90;;
20890;SDS011;10605;52.968;8.844;2023-07-29T12:55:53;1.00;;;0.90;;
20890;SDS011;10605;52.968;8.844;2023-07-29T12:58:19;1.15;;;0.70;;
20890;SDS011;10605;52.968;8.844;2023-07-29T13:00:45;0.68;;;0.63;;
20890;SDS011;10605;52.968;8.844;2023-07-29T13:03:10;2.28;;;0.95;;
20890;SDS011;10605;52.968;8.844;2023-07-29T13:05:36;3.45;;;0.77;;
20890;SDS011;10605;52.968;8.844;2023-07-29T13:08:03;27.63;;;7.38;;
20890;SDS011;10605;52.968;8.844;2023-07-29T13:10:29;1.65;;;1.10;;
20890;SDS011;10605;52.968;8.844;2023-07-29T13:12:54;3.88;;;1.10;;
20890;SDS011;10605;52.968;8.844;2023-07-29T13:15:20;3.58;;;1.65;;
20890;SDS011;10605;52.968;8.844;2023-07-29T13:17:46;2.85;;;1.60;;
20890;SDS011;10605;52.968;8.844;2023-07-29T13:20:11;2.70;;;1.02;;
20890;SDS011;10605;52.968;8.844;2023-07-29T13:22:37;0.98;;;0.93;;
20890;SDS011;10605;52.968;8.844;2023-07-29T13:25:03;8.63;;;3.03;;
20890;SDS011;10605;52.968;8.844;2023-07-29T13:27:29;1.77;;;1.00;;
20890;SDS011;10605;52.968;8.844;2023-07-29T13:29:56;3.17;;;0.95;;
20890;SDS011;10605;52.968;8.844;2023-07-29T13:32:21;1.17;;;0.68;;
20890;SDS011;10605;52.968;8.844;2023-07-29T13:34:47;1.92;;;1.10;;
20890;SDS011;10605;52.968;8.844;2023-07-29T13:37:13;3.83;;;0.90;;
20890;SDS011;10605;52.968;8.844;2023-07-29T13:39:39;1.42;;;1.33;;
20890;SDS011;10605;52.968;8.844;2023-07-29T13:42:04;2.78;;;1.17;;
20890;SDS011;10605;52.968;8.844;2023-07-29T13:44:30;2.08;;;1.10;;
20890;SDS011;10605;52.968;8.844;2023-07-29T13:46:56;1.38;;;0.90;;
20890;SDS011;10605;52.968;8.844;2023-07-29T13:49:21;5.35;;;1.02;;
20890;SDS011;10605;52.968;8.844;2023-07-29T13:51:47;1.10;;;0.98;;
20890;SDS011;10605;52.968;8.844;2023-07-29T13:54:13;1.02;;;0.80;;
20890;SDS011;10605;52.968;8.844;2023-07-29T13:56:38;5.60;;;1.15;;
20890;SDS011;10605;52.968;8.844;2023-07-29T13:59:04;3.25;;;1.05;;
20890;SDS011;10605;52.968;8.844;2023-07-29T14:01:30;0.95;;;0.73;;
20890;SDS011;10605;52.968;8.844;2023-07-29T14:03:55;0.85;;;0.80;;
20890;SDS011;10605;52.968;8.844;2023-07-29T14:06:21;1.42;;;1.10;;
20890;SDS011;10605;52.968;8.844;2023-07-29T14:08:46;1.23;;;1.13;;
20890;SDS011;10605;52.968;8.844;2023-07-29T14:11:12;1.17;;;0.90;;
20890;SDS011;10605;52.968;8.844;2023-07-29T14:13:38;2.10;;;1.05;;
20890;SDS011;10605;52.968;8.844;2023-07-29T14:16:03;1.05;;;1.02;;
20890;SDS011;10605;52.968;8.844;2023-07-29T14:18:29;1.20;;;1.10;;
20890;SDS011;10605;52.968;8.844;2023-07-29T14:20:55;1.38;;;1.20;;
20890;SDS011;10605;52.968;8.844;2023-07-29T14:23:21;1.58;;;1.40;;
20890;SDS011;10605;52.968;8.844;2023-07-29T14:25:47;3.35;;;1.10;;
20890;SDS011;10605;52.968;8.844;2023-07-29T14:28:13;2.25;;;1.30;;
20890;SDS011;10605;52.968;8.844;2023-07-29T14:30:39;2.38;;;1.40;;
20890;SDS011;10605;52.968;8.844;2023-07-29T14:33:06;3.28;;;1.40;;
20890;SDS011;10605;52.968;8.844;2023-07-29T14:35:31;1.45;;;1.20;;
20890;SDS011;10605;52.968;8.844;2023-07-29T14:37:57;2.13;;;1.20;;
20890;SDS011;10605;52.968;8.844;2023-07-29T14:40:23;2.35;;;1.30;;
20890;SDS011;10605;52.968;8.844;2023-07-29T14:42:48;1.40;;;1.30;;
20890;SDS011;10605;52.968;8.844;2023-07-29T14:45:14;3.22;;;1.58;;
20890;SDS011;10605;52.968;8.844;2023-07-29T14:47:40;1.20;;;1.13;;
20890;SDS011;10605;52.968;8.844;2023-07-29T14:50:05;2.15;;;1.55;;
20890;SDS011;10605;52.968;8.844;2023-07-29T14:52:31;2.47;;;1.30;;
20890;SDS011;10605;52.968;8.844;2023-07-29T14:54:57;2.20;;;1.23;;
20890;SDS011;10605;52.968;8.844;2023-07-29T14:57:22;4.80;;;1.55;;
20890;SDS011;10605;52.968;8.844;2023-07-29T14:59:48;1.40;;;1.30;;
20890;SDS011;10605;52.968;8.844;2023-07-29T15:02:14;1.92;;;1.75;;
20890;SDS011;10605;52.968;8.844;2023-07-29T15:04:39;2.53;;;1.50;;
20890;SDS011;10605;52.968;8.844;2023-07-29T15:07:05;6.10;;;1.75;;
20890;SDS011;10605;52.968;8.844;2023-07-29T15:09:31;1.10;;;1.10;;
20890;SDS011;10605;52.968;8.844;2023-07-29T15:11:56;2.72;;;1.55;;
20890;SDS011;10605;52.968;8.844;2023-07-29T15:14:22;1.90;;;1.60;;
20890;SDS011;10605;52.968;8.844;2023-07-29T15:16:48;4.93;;;1.40;;
20890;SDS011;10605;52.968;8.844;2023-07-29T15:19:13;1.60;;;1.50;;
20890;SDS011;10605;52.968;8.844;2023-07-29T15:21:39;1.50;;;1.40;;